Time;durP1;ratioP1;P1;durP2;ratioP2;P2;SDS_P1;SDS_P2;PMS_P1;PMS_P2;Temp;Humidity;BMP_temperature;BMP_pressure;BME280_temperature;BME280_humidity;BME280_pressure;Samples;Min_cycle;Max_cycle;Signal;HPM_P1;HPM_P2
2023/04/12 00:00:12;;;;;;;;;5.67;3.00;;;;;13.04;100.00;100192.31;5037793;28;47950;-73
2023/04/12 00:02:38;;;;;;;;;5.00;3.67;;;;;13.05;100.00;100180.38;5020700;28;46200;-73
2023/04/12 00:05:03;;;;;;;;;3.33;3.33;;;;;12.60;100.00;100189.25;5023137;28;45494;-73
2023/04/12 00:07:29;;;;;;;;;3.67;3.67;;;;;12.88;100.00;100187.78;5027030;28;47403;-73
2023/04/12 00:09:55;;;;;;;;;3.67;3.00;;;;;12.92;100.00;100182.84;5044252;28;51268;-74
2023/04/12 00:12:20;;;;;;;;;5.00;3.67;;;;;13.01;100.00;100168.09;5023564;28;45529;-73
2023/04/12 00:14:46;;;;;;;;;5.33;4.00;;;;;12.96;100.00;100162.34;5042213;28;45285;-72
2023/04/12 00:17:12;;;;;;;;;6.00;5.00;;;;;13.04;100.00;100159.59;5022117;28;45458;-72
2023/04/12 00:19:41;;;;;;;;;1.00;1.00;;;;;12.89;100.00;100166.81;5014360;28;47093;-73
2023/04/12 00:22:10;;;;;;;;;6.00;4.00;;;;;12.95;100.00;100152.47;5042432;28;45340;-74
2023/04/12 00:24:38;;;;;;;;;3.33;3.00;;;;;12.89;100.00;100142.28;5042282;28;45522;-74
2023/04/12 00:27:04;;;;;;;;;9.00;4.00;;;;;12.86;100.00;100134.44;5044337;28;45436;-72
2023/04/12 00:29:29;;;;;;;;;4.67;4.00;;;;;12.73;100.00;100131.44;5042938;28;46315;-74
2023/04/12 00:31:54;;;;;;;;;5.67;5.67;;;;;12.80;100.00;100129.72;5046226;28;45164;-73
2023/04/12 00:34:20;;;;;;;;;7.00;4.00;;;;;12.67;100.00;100124.84;5041848;28;45387;-73
2023/04/12 00:36:45;;;;;;;;;4.00;4.00;;;;;12.79;100.00;100122.56;5048607;28;46491;-73
2023/04/12 00:39:10;;;;;;;;;7.00;5.00;;;;;12.69;100.00;100111.88;5042736;28;49618;-73
2023/04/12 00:41:36;;;;;;;;;2.67;2.33;;;;;12.80;100.00;100113.34;5021802;28;46940;-74
2023/04/12 00:44:02;;;;;;;;;5.00;5.00;;;;;12.72;100.00;100100.59;5040641;28;45518;-74
2023/04/12 00:46:28;;;;;;;;;5.00;4.67;;;;;12.70;100.00;100096.38;5050576;28;45615;-73
2023/04/12 00:48:55;;;;;;;;;5.00;3.33;;;;;12.72;100.00;100095.16;5013327;28;46807;-73
2023/04/12 00:51:21;;;;;;;;;7.00;4.00;;;;;12.70;100.00;100085.47;5049443;28;45346;-75
2023/04/12 00:53:47;;;;;;;;;3.33;3.33;;;;;12.56;100.00;100083.50;5032512;28;45483;-74
2023/04/12 00:56:13;;;;;;;;;1.67;1.67;;;;;12.62;100.00;100071.91;5022813;28;45575;-73
2023/04/12 00:58:38;;;;;;;;;6.00;4.33;;;;;12.94;100.00;100065.38;5031019;28;46204;-74
2023/04/12 01:01:04;;;;;;;;;10.00;5.00;;;;;12.95;100.00;100051.56;5048676;28;45173;-74
2023/04/12 01:03:30;;;;;;;;;4.33;3.33;;;;;12.75;100.00;100062.09;5043375;28;45308;-73
2023/04/12 01:06:08;;;;;;;;;11.67;3.00;;;;;12.85;100.00;100067.34;5021916;28;45374;-73
2023/04/12 01:09:03;;;;;;;;;4.00;4.00;;;;;12.71;100.00;100047.13;5036057;28;45671;-73
2023/04/12 01:11:41;;;;;;;;;7.33;4.67;;;;;12.94;100.00;100028.06;5036644;28;45570;-73
2023/04/12 01:14:23;;;;;;;;;8.33;6.00;;;;;13.03;100.00;100001.59;5037030;28;45367;-73
2023/04/12 01:16:52;;;;;;;;;3.00;3.00;;;;;12.84;100.00;100000.22;5026620;28;45514;-74
2023/04/12 01:19:36;;;;;;;;;5.67;5.67;;;;;12.97;100.00;100010.50;5035129;28;45648;-73
2023/04/12 01:22:18;;;;;;;;;4.00;4.00;;;;;12.40;100.00;100003.53;5039425;28;45609;-73
2023/04/12 01:25:09;;;;;;;;;6.00;5.00;;;;;12.92;100.00;100005.59;5024414;28;45450;-73
2023/04/12 01:27:44;;;;;;;;;5.00;5.00;;;;;12.90;100.00;99996.75;5031920;28;45537;-73
2023/04/12 01:30:13;;;;;;;;;6.33;4.00;;;;;12.96;100.00;100004.19;5049129;28;45495;-73
2023/04/12 01:32:42;;;;;;;;;4.00;4.00;;;;;12.89;100.00;100005.97;5022114;28;45780;-74
2023/04/12 01:35:09;;;;;;;;;3.67;3.67;;;;;12.89;100.00;99989.59;5047941;28;45227;-73
2023/04/12 01:37:35;;;;;;;;;4.33;3.00;;;;;13.05;100.00;99973.13;5015053;28;45434;-72
2023/04/12 01:40:04;;;;;;;;;5.33;5.33;;;;;12.93;100.00;99963.66;5045321;28;45440;-72
2023/04/12 01:42:30;;;;;;;;;4.00;3.33;;;;;12.90;100.00;99952.28;5042913;28;45342;-72
2023/04/12 01:44:55;;;;;;;;;4.33;3.00;;;;;13.01;100.00;99962.75;5051120;28;45843;-73
2023/04/12 01:47:21;;;;;;;;;4.00;3.00;;;;;12.99;100.00;99954.78;5044824;28;45303;-73
2023/04/12 01:49:58;;;;;;;;;4.00;3.67;;;;;12.99;100.00;99959.38;5023460;28;46954;-73
2023/04/12 01:52:29;;;;;;;;;3.67;3.00;;;;;12.94;100.00;99939.97;5038800;28;45388;-73
2023/04/12 01:54:57;;;;;;;;;8.33;5.00;;;;;12.91;100.00;99930.28;5046420;28;45455;-73
2023/04/12 01:57:25;;;;;;;;;3.67;3.33;;;;;12.92;100.00;99932.00;5045574;28;45255;-72
2023/04/12 01:59:55;;;;;;;;;8.33;5.33;;;;;12.91;100.00;99919.38;5031284;28;45535;-72
2023/04/12 02:02:21;;;;;;;;;5.00;5.00;;;;;12.96;100.00;99927.84;5048461;28;47459;-73
2023/04/12 02:04:47;;;;;;;;;4.67;3.00;;;;;12.98;100.00;99908.59;5023821;28;45402;-73
2023/04/12 02:07:14;;;;;;;;;5.00;3.67;;;;;12.99;100.00;99902.13;5036937;28;45424;-72
2023/04/12 02:09:40;;;;;;;;;5.00;2.67;;;;;13.05;100.00;99912.28;5037110;28;45447;-73
2023/04/12 02:12:06;;;;;;;;;3.00;3.00;;;;;12.90;100.00;99905.94;5043264;28;45265;-74
2023/04/12 02:14:31;;;;;;;;;4.33;4.33;;;;;12.80;100.00;99908.91;5044132;28;45446;-74
2023/04/12 02:16:57;;;;;;;;;3.67;3.00;;;;;12.94;100.00;99899.91;5025364;28;45209;-74
2023/04/12 02:19:23;;;;;;;;;5.67;4.67;;;;;12.86;100.00;99884.47;5037095;28;45296;-72
2023/04/12 02:21:49;;;;;;;;;4.00;4.00;;;;;13.00;100.00;99876.53;5035188;28;45259;-72
2023/04/12 02:24:15;;;;;;;;;4.33;4.33;;;;;13.07;100.00;99870.16;5040957;28;45402;-73
2023/04/12 02:26:41;;;;;;;;;5.00;4.00;;;;;13.03;100.00;99857.91;5046738;28;45414;-72
2023/04/12 02:29:09;;;;;;;;;4.67;4.00;;;;;13.07;100.00;99864.72;5042141;28;46247;-73
2023/04/12 02:31:37;;;;;;;;;4.00;3.67;;;;;12.97;100.00;99855.94;5049902;28;45371;-72
2023/04/12 02:34:03;;;;;;;;;1.33;1.33;;;;;13.16;100.00;99847.22;5042729;28;45332;-73
2023/04/12 02:36:28;;;;;;;;;2.33;2.33;;;;;12.91;100.00;99848.50;5037357;28;45347;-72
2023/04/12 02:38:54;;;;;;;;;3.00;3.00;;;;;13.05;100.00;99853.13;5041430;28;45456;-73
2023/04/12 02:41:21;;;;;;;;;4.33;2.67;;;;;13.10;100.00;99837.03;5022763;28;45806;-73
2023/04/12 02:43:47;;;;;;;;;5.67;2.67;;;;;13.11;100.00;99830.56;5029410;28;45391;-74
2023/04/12 02:46:25;;;;;;;;;3.00;3.00;;;;;13.14;100.00;99832.97;5050280;28;45259;-74
2023/04/12 02:48:51;;;;;;;;;2.00;2.00;;;;;12.99;100.00;99826.63;5031200;28;45403;-74
2023/04/12 02:51:16;;;;;;;;;3.67;3.67;;;;;12.93;100.00;99812.88;5044026;28;45419;-72
2023/04/12 02:53:42;;;;;;;;;3.00;1.67;;;;;12.92;100.00;99820.22;5032221;28;45168;-73
2023/04/12 02:56:08;;;;;;;;;2.00;2.00;;;;;12.93;100.00;99807.44;5033017;28;45409;-73
2023/04/12 02:58:35;;;;;;;;;3.33;3.33;;;;;12.99;100.00;99812.97;5035861;28;45459;-74
2023/04/12 03:01:00;;;;;;;;;4.00;2.00;;;;;12.96;100.00;99823.41;5050069;28;45395;-74
2023/04/12 03:03:27;;;;;;;;;2.67;2.67;;;;;12.94;100.00;99822.72;5045425;28;45586;-74
2023/04/12 03:05:53;;;;;;;;;3.33;3.33;;;;;13.01;100.00;99838.16;5050584;28;45496;-73
2023/04/12 03:08:20;;;;;;;;;3.00;3.00;;;;;12.95;100.00;99854.41;5040700;28;45648;-74
2023/04/12 03:10:45;;;;;;;;;5.00;4.00;;;;;13.03;100.00;99862.53;5038433;28;45220;-74
2023/04/12 03:13:11;;;;;;;;;3.00;3.00;;;;;13.20;100.00;99873.13;5037340;28;45609;-75
2023/04/12 03:15:36;;;;;;;;;3.33;2.00;;;;;13.17;100.00;99880.81;5030869;28;45618;-75
2023/04/12 03:18:01;;;;;;;;;1.00;1.00;;;;;12.86;100.00;99879.03;5037945;28;50924;-75
2023/04/12 03:20:27;;;;;;;;;1.00;1.00;;;;;12.68;100.00;99878.53;5056374;28;45498;-73
2023/04/12 03:22:53;;;;;;;;;3.00;2.00;;;;;12.09;100.00;99880.97;5053903;28;46294;-71
2023/04/12 03:25:18;;;;;;;;;0.00;0.00;;;;;11.89;100.00;99873.44;5055356;28;45425;-73
2023/04/12 03:27:44;;;;;;;;;0.00;0.00;;;;;12.12;100.00;99871.63;5050923;28;45458;-72
2023/04/12 03:30:10;;;;;;;;;0.00;0.00;;;;;12.27;100.00;99864.34;5036265;28;45494;-72
2023/04/12 03:32:36;;;;;;;;;0.33;0.00;;;;;12.27;100.00;99849.91;5053875;28;45271;-72
2023/04/12 03:35:03;;;;;;;;;0.00;0.00;;;;;12.41;100.00;99869.03;5037731;28;45422;-73
2023/04/12 03:37:28;;;;;;;;;0.00;0.00;;;;;12.30;100.00;99855.81;5020645;28;47356;-73
2023/04/12 03:39:54;;;;;;;;;1.00;0.00;;;;;12.36;100.00;99854.25;5051050;28;45790;-72
2023/04/12 03:42:19;;;;;;;;;1.00;1.00;;;;;12.49;100.00;99868.94;5052673;28;45236;-74
2023/04/12 03:44:44;;;;;;;;;0.00;0.00;;;;;12.55;100.00;99847.47;5041430;28;45427;-74
2023/04/12 03:47:10;;;;;;;;;0.00;0.00;;;;;12.67;100.00;99856.91;5050568;28;46499;-73
2023/04/12 03:49:37;;;;;;;;;0.00;0.00;;;;;12.56;100.00;99852.75;5043065;28;45225;-74
2023/04/12 03:52:04;;;;;;;;;0.67;0.67;;;;;12.56;100.00;99843.72;5051872;28;45584;-74
2023/04/12 03:54:29;;;;;;;;;0.00;0.00;;;;;12.66;100.00;99844.28;5042352;28;45259;-73
2023/04/12 03:56:55;;;;;;;;;0.00;0.00;;;;;12.71;100.00;99842.69;5054931;28;47660;-74
2023/04/12 03:59:21;;;;;;;;;0.33;0.33;;;;;12.72;100.00;99829.94;5044581;28;45373;-74
2023/04/12 04:01:46;;;;;;;;;1.00;0.00;;;;;12.70;100.00;99821.13;5056160;28;45490;-74
2023/04/12 04:04:12;;;;;;;;;0.00;0.00;;;;;12.75;100.00;99833.16;5045267;28;45324;-74
2023/04/12 04:06:38;;;;;;;;;0.33;0.33;;;;;12.81;100.00;99821.50;5057948;28;45401;-73
2023/04/12 04:09:04;;;;;;;;;0.67;0.67;;;;;12.81;100.00;99823.38;5017460;28;45265;-74
2023/04/12 04:11:30;;;;;;;;;0.00;0.00;;;;;12.64;100.00;99838.22;5059314;28;45329;-74
2023/04/12 04:13:56;;;;;;;;;0.00;0.00;;;;;12.48;100.00;99820.97;5023096;28;45286;-75
2023/04/12 04:16:21;;;;;;;;;0.33;0.33;;;;;12.57;100.00;99827.16;5045713;28;45652;-74
2023/04/12 04:18:46;;;;;;;;;3.00;3.00;;;;;12.63;100.00;99817.44;5022339;28;45241;-76
2023/04/12 04:21:13;;;;;;;;;0.00;0.00;;;;;12.72;100.00;99819.03;5036641;28;45490;-73
2023/04/12 04:23:38;;;;;;;;;2.00;0.00;;;;;12.71;100.00;99815.44;5037898;28;45606;-73
2023/04/12 04:26:09;;;;;;;;;2.00;2.00;;;;;12.65;100.00;99809.91;5045832;28;46615;-74
2023/04/12 04:28:36;;;;;;;;;2.00;0.00;;;;;12.58;100.00;99808.94;5038907;28;45260;-75
2023/04/12 04:31:05;;;;;;;;;1.00;1.00;;;;;12.47;100.00;99813.81;5046045;28;45422;-75
2023/04/12 04:33:33;;;;;;;;;0.00;0.00;;;;;12.49;100.00;99814.47;5042764;28;45446;-73
2023/04/12 04:35:58;;;;;;;;;0.00;0.00;;;;;12.47;100.00;99810.25;5018485;28;47644;-73
2023/04/12 04:38:27;;;;;;;;;0.67;0.00;;;;;12.63;100.00;99817.44;5042394;28;45424;-75
2023/04/12 04:40:52;;;;;;;;;1.00;1.00;;;;;12.64;100.00;99802.78;5046360;28;45359;-76
2023/04/12 04:43:19;;;;;;;;;0.00;0.00;;;;;12.67;100.00;99814.13;5019117;28;45565;-75
2023/04/12 04:45:48;;;;;;;;;0.00;0.00;;;;;12.77;100.00;99806.56;5030080;28;46497;-76
2023/04/12 04:48:13;;;;;;;;;0.00;0.00;;;;;12.87;100.00;99814.44;5021301;28;45873;-76
2023/04/12 04:50:38;;;;;;;;;0.67;0.67;;;;;12.76;100.00;99809.47;5027372;28;46007;-74
2023/04/12 04:53:04;;;;;;;;;0.00;0.00;;;;;12.79;100.00;99796.28;5043375;28;46111;-72
2023/04/12 04:55:29;;;;;;;;;0.00;0.00;;;;;12.81;100.00;99807.03;5040612;28;46475;-76
2023/04/12 04:57:58;;;;;;;;;0.00;0.00;;;;;12.80;100.00;99798.00;5048620;28;45313;-74
2023/04/12 05:00:24;;;;;;;;;1.67;0.33;;;;;12.84;100.00;99801.22;5026660;28;45474;-73
2023/04/12 05:02:50;;;;;;;;;1.33;0.33;;;;;12.85;100.00;99800.19;5028654;28;45367;-73
2023/04/12 05:05:16;;;;;;;;;1.33;0.00;;;;;12.95;100.00;99794.44;5035827;28;45329;-74
2023/04/12 05:07:42;;;;;;;;;2.00;2.00;;;;;12.94;100.00;99804.50;5047446;28;45461;-72
2023/04/12 05:10:09;;;;;;;;;2.00;2.00;;;;;12.92;100.00;99808.47;5018574;28;45380;-72
2023/04/12 05:12:35;;;;;;;;;3.00;0.00;;;;;12.58;100.00;99785.25;5047222;28;45578;-72
2023/04/12 05:15:01;;;;;;;;;4.33;4.33;;;;;12.63;100.00;99803.81;5029125;28;46487;-72
2023/04/12 05:17:27;;;;;;;;;2.33;2.00;;;;;12.79;100.00;99823.56;5023457;28;45491;-71
2023/04/12 05:19:52;;;;;;;;;5.00;4.00;;;;;12.71;100.00;99803.72;5032950;28;45472;-73
2023/04/12 05:22:19;;;;;;;;;6.33;5.00;;;;;12.74;100.00;99828.72;5016045;28;45641;-72
2023/04/12 05:24:45;;;;;;;;;5.00;5.00;;;;;12.42;100.00;99827.13;5021593;28;47089;-73
2023/04/12 05:27:10;;;;;;;;;3.67;3.33;;;;;12.09;100.00;99831.13;5044399;28;45447;-73
2023/04/12 05:29:36;;;;;;;;;4.67;3.00;;;;;12.18;100.00;99846.38;5043086;28;45273;-73
2023/04/12 05:32:01;;;;;;;;;5.00;5.00;;;;;11.93;100.00;99836.66;5047939;28;45383;-73
2023/04/12 05:34:26;;;;;;;;;4.00;4.00;;;;;11.97;100.00;99857.06;5043044;28;46432;-72
2023/04/12 05:36:52;;;;;;;;;4.00;2.00;;;;;11.88;100.00;99860.88;5020690;28;45420;-73
2023/04/12 05:39:17;;;;;;;;;2.00;2.00;;;;;11.70;100.00;99867.38;5042763;28;45242;-73
2023/04/12 05:41:43;;;;;;;;;4.00;4.00;;;;;11.76;100.00;99876.75;5049383;28;45563;-72
2023/04/12 05:44:08;;;;;;;;;4.00;2.00;;;;;11.67;100.00;99875.06;5041895;28;45271;-73
2023/04/12 05:46:33;;;;;;;;;6.33;4.00;;;;;11.54;100.00;99881.03;5050013;28;45414;-72
2023/04/12 05:48:59;;;;;;;;;4.00;2.00;;;;;11.62;100.00;99872.00;5033023;28;45442;-72
2023/04/12 05:51:25;;;;;;;;;1.33;1.00;;;;;11.44;100.00;99847.75;5049673;28;45456;-72
2023/04/12 05:53:50;;;;;;;;;4.00;2.33;;;;;11.61;100.00;99862.16;5033518;28;46316;-72
2023/04/12 05:56:15;;;;;;;;;1.67;1.67;;;;;11.49;100.00;99882.59;5049954;28;45308;-73
2023/04/12 05:58:41;;;;;;;;;4.67;2.00;;;;;11.61;100.00;99889.38;5035282;28;45225;-73
2023/04/12 06:01:06;;;;;;;;;1.00;1.00;;;;;11.40;100.00;99892.63;5049894;28;45276;-72
2023/04/12 06:03:32;;;;;;;;;1.00;1.00;;;;;11.25;100.00;99892.50;5044271;28;46139;-73
2023/04/12 06:05:57;;;;;;;;;1.67;1.67;;;;;11.40;100.00;99894.50;5042603;28;45638;-74
2023/04/12 06:08:22;;;;;;;;;3.00;3.00;;;;;11.38;100.00;99908.31;5022129;28;45407;-73
2023/04/12 06:10:48;;;;;;;;;2.00;2.00;;;;;11.50;100.00;99906.91;5036908;28;45321;-73
2023/04/12 06:13:14;;;;;;;;;5.00;3.33;;;;;11.42;100.00;99877.00;5019055;28;47750;-73
2023/04/12 06:15:39;;;;;;;;;1.67;1.00;;;;;11.39;100.00;99880.09;5038664;28;45554;-74
2023/04/12 06:18:06;;;;;;;;;2.33;2.33;;;;;11.59;100.00;99894.97;5013345;28;45482;-72
2023/04/12 06:20:31;;;;;;;;;2.33;2.33;;;;;11.78;100.00;99893.72;5023902;28;46000;-72
2023/04/12 06:22:57;;;;;;;;;5.00;4.00;;;;;11.81;100.00;99887.09;5028581;28;46032;-72
2023/04/12 06:25:23;;;;;;;;;4.33;4.33;;;;;11.98;100.00;99905.06;5046896;28;45386;-73
2023/04/12 06:27:48;;;;;;;;;3.67;3.00;;;;;11.80;100.00;99890.84;5038205;28;45404;-72
2023/04/12 06:30:14;;;;;;;;;5.33;4.00;;;;;11.87;100.00;99898.13;5031154;28;45394;-74
2023/04/12 06:32:39;;;;;;;;;10.00;7.67;;;;;11.88;100.00;99878.03;5041116;28;47901;-73
2023/04/12 06:35:05;;;;;;;;;8.33;7.67;;;;;11.85;100.00;99902.88;5047301;28;45143;-73
2023/04/12 06:37:30;;;;;;;;;10.33;8.00;;;;;11.71;100.00;99909.03;5041605;28;45419;-74
2023/04/12 06:39:56;;;;;;;;;10.33;5.00;;;;;11.54;100.00;99908.22;5050337;28;45224;-73
2023/04/12 06:42:21;;;;;;;;;8.67;4.67;;;;;11.78;100.00;99893.72;5043053;28;46461;-73
2023/04/12 06:44:46;;;;;;;;;6.33;6.33;;;;;12.20;100.00;99898.78;5038904;28;45204;-73
2023/04/12 06:47:12;;;;;;;;;7.33;6.67;;;;;12.31;100.00;99902.97;5043746;28;45182;-72
2023/04/12 06:49:38;;;;;;;;;33.50;33.25;;;;;12.31;100.00;99895.66;5038530;28;45541;-74
2023/04/12 06:52:03;;;;;;;;;14.67;13.00;;;;;12.49;100.00;99898.91;5044390;28;46355;-73
2023/04/12 06:54:29;;;;;;;;;9.67;9.33;;;;;12.39;100.00;99920.13;5022262;28;45327;-74
2023/04/12 06:56:56;;;;;;;;;6.00;5.00;;;;;12.14;100.00;99921.28;5034097;28;45318;-74
2023/04/12 06:59:21;;;;;;;;;9.00;6.67;;;;;11.85;100.00;99915.63;5022147;28;45631;-73
2023/04/12 07:01:47;;;;;;;;;8.00;3.67;;;;;11.87;100.00;99916.31;5034943;28;46096;-74
2023/04/12 07:04:12;;;;;;;;;6.33;4.00;;;;;11.77;100.00;99918.38;5043301;28;45273;-74
2023/04/12 07:06:38;;;;;;;;;10.33;8.00;;;;;11.78;100.00;99920.09;5045761;28;45320;-73
2023/04/12 07:09:03;;;;;;;;;8.00;5.00;;;;;11.88;100.00;99899.81;5041212;28;45304;-75
2023/04/12 07:11:30;;;;;;;;;7.33;7.33;;;;;12.18;100.00;99906.28;5036716;28;46291;-73
2023/04/12 07:13:57;;;;;;;;;2.67;2.00;;;;;12.14;100.00;99896.78;5037639;28;45446;-74
2023/04/12 07:16:23;;;;;;;;;3.00;2.00;;;;;11.86;100.00;99879.22;5045593;28;45495;-75
2023/04/12 07:18:49;;;;;;;;;7.67;5.33;;;;;12.10;100.00;99879.13;5016078;28;45450;-73
2023/04/12 07:21:16;;;;;;;;;3.67;2.67;;;;;12.28;100.00;99890.56;5035166;28;45643;-73
2023/04/12 07:23:42;;;;;;;;;6.67;5.00;;;;;12.07;100.00;99884.91;5039155;28;45362;-73
2023/04/12 07:26:07;;;;;;;;;6.00;4.33;;;;;11.95;100.00;99897.22;5047500;28;45424;-74
2023/04/12 07:28:34;;;;;;;;;5.00;3.67;;;;;11.96;100.00;99879.88;5042002;28;45328;-73
2023/04/12 07:31:00;;;;;;;;;10.00;5.00;;;;;12.28;100.00;99893.28;5046489;28;45336;-74
2023/04/12 07:33:25;;;;;;;;;5.00;3.00;;;;;12.36;100.00;99870.59;5041610;28;45485;-75
2023/04/12 07:35:50;;;;;;;;;7.33;4.33;;;;;12.61;100.00;99868.53;5045848;28;45393;-73
2023/04/12 07:38:16;;;;;;;;;6.33;4.00;;;;;12.74;100.00;99863.31;5027923;28;45530;-74
2023/04/12 07:40:41;;;;;;;;;7.00;2.67;;;;;12.89;100.00;99856.00;5045993;28;45406;-73
2023/04/12 07:43:07;;;;;;;;;2.33;2.33;;;;;12.84;100.00;99874.81;5041004;28;45359;-74
2023/04/12 07:45:35;;;;;;;;;2.00;2.00;;;;;12.97;100.00;99860.53;5042908;28;45466;-73
2023/04/12 07:48:02;;;;;;;;;8.00;4.33;;;;;12.71;100.00;99858.25;5046133;28;45502;-73
2023/04/12 07:50:27;;;;;;;;;9.00;4.67;;;;;12.45;100.00;99834.94;5041060;28;46071;-73
2023/04/12 07:52:53;;;;;;;;;3.00;1.00;;;;;12.64;100.00;99839.03;5045766;28;45453;-74
2023/04/12 07:55:18;;;;;;;;;2.00;2.00;;;;;12.51;100.00;99846.13;5040684;28;45271;-74
2023/04/12 07:57:43;;;;;;;;;3.67;2.00;;;;;12.51;100.00;99865.19;5049506;28;45287;-74
2023/04/12 08:00:10;;;;;;;;;3.00;2.00;;;;;12.69;100.00;99852.97;5039476;28;45905;-75
2023/04/12 08:02:35;;;;;;;;;3.33;2.00;;;;;12.79;100.00;99855.41;5046377;28;45475;-76
2023/04/12 08:05:00;;;;;;;;;2.67;2.00;;;;;13.27;100.00;99869.66;5036498;28;45395;-75
2023/04/12 08:07:26;;;;;;;;;2.00;2.00;;;;;13.38;100.00;99878.19;5045563;28;45628;-75
2023/04/12 08:09:51;;;;;;;;;1.33;1.33;;;;;13.54;100.00;99872.56;5040862;28;45479;-75
2023/04/12 08:12:16;;;;;;;;;5.00;4.00;;;;;13.58;100.00;99878.50;5046291;28;45273;-74
2023/04/12 08:14:42;;;;;;;;;1.00;1.00;;;;;13.47;100.00;99898.06;5023190;28;45190;-74
2023/04/12 08:17:07;;;;;;;;;2.00;2.00;;;;;13.57;100.00;99895.91;5043262;28;45435;-73
2023/04/12 08:19:33;;;;;;;;;1.67;1.00;;;;;13.41;100.00;99877.84;5037367;28;46841;-74
2023/04/12 08:21:59;;;;;;;;;0.67;0.67;;;;;12.99;100.00;99886.59;5042673;28;45378;-75
2023/04/12 08:24:25;;;;;;;;;0.00;0.00;;;;;12.98;100.00;99908.59;5039783;28;45387;-73
2023/04/12 08:26:50;;;;;;;;;1.00;1.00;;;;;13.35;100.00;99926.84;5045179;28;45460;-74
2023/04/12 08:29:17;;;;;;;;;1.00;1.00;;;;;13.54;100.00;99921.69;5038766;28;46138;-74
2023/04/12 08:31:42;;;;;;;;;2.00;2.00;;;;;13.27;100.00;99902.38;5046547;28;45260;-74
2023/04/12 08:34:08;;;;;;;;;2.33;2.33;;;;;13.38;100.00;99923.72;5045516;28;45237;-74
2023/04/12 08:36:33;;;;;;;;;2.33;2.33;;;;;13.34;100.00;99914.25;5051950;28;45449;-75
2023/04/12 08:38:59;;;;;;;;;2.00;2.00;;;;;13.67;100.00;99923.75;5044929;28;46204;-74
2023/04/12 08:41:25;;;;;;;;;3.00;1.00;;;;;13.51;100.00;99910.31;5050671;28;45185;-74
2023/04/12 08:43:51;;;;;;;;;1.67;1.00;;;;;13.60;100.00;99917.34;5034774;28;45436;-75
2023/04/12 08:46:17;;;;;;;;;1.00;1.00;;;;;13.79;100.00;99910.50;5044478;28;45437;-75
2023/04/12 08:48:47;;;;;;;;;1.00;1.00;;;;;13.58;100.00;99920.28;5036765;28;45592;-75
2023/04/12 08:51:15;;;;;;;;;0.00;0.00;;;;;13.53;100.00;99922.72;5050565;28;45434;-75
2023/04/12 08:53:40;;;;;;;;;2.00;0.00;;;;;14.17;100.00;99916.66;5019515;28;45316;-76
2023/04/12 08:56:10;;;;;;;;;2.00;2.00;;;;;14.59;100.00;99932.28;5034204;28;45398;-76
2023/04/12 08:58:41;;;;;;;;;3.67;1.00;;;;;14.40;100.00;99912.75;5047043;28;46109;-71
2023/04/12 09:01:12;;;;;;;;;0.67;0.67;;;;;14.72;100.00;99927.81;5050389;28;45525;-75
2023/04/12 09:03:38;;;;;;;;;1.00;1.00;;;;;15.10;100.00;99927.53;5042120;28;45335;-75
2023/04/12 09:06:04;;;;;;;;;0.00;0.00;;;;;14.98;100.00;99910.78;5037206;28;45277;-76
2023/04/12 09:08:29;;;;;;;;;1.00;1.00;;;;;14.68;100.00;99920.19;5024400;28;47799;-75
2023/04/12 09:10:54;;;;;;;;;2.00;1.00;;;;;14.39;100.00;99927.44;5039290;28;45401;-75
2023/04/12 09:13:34;;;;;;;;;2.00;2.00;;;;;14.99;100.00;99925.31;5021805;28;45421;-75
2023/04/12 09:16:00;;;;;;;;;3.00;3.00;;;;;15.28;100.00;99916.06;5045848;28;45401;-75
2023/04/12 09:18:29;;;;;;;;;5.00;2.00;;;;;15.13;100.00;99921.63;5020433;28;47904;-75
2023/04/12 09:21:12;;;;;;;;;1.33;1.33;;;;;14.55;100.00;99920.88;5040721;28;45307;-75
2023/04/12 09:23:37;;;;;;;;;2.00;2.00;;;;;14.40;100.00;99939.22;5039604;28;45259;-74
2023/04/12 09:26:03;;;;;;;;;1.67;1.00;;;;;14.33;100.00;99930.91;5048512;28;45515;-73
2023/04/12 09:28:30;;;;;;;;;5.67;5.67;;;;;14.91;100.00;99937.22;5044005;28;45441;-74
2023/04/12 09:30:58;;;;;;;;;5.00;2.00;;;;;14.73;100.00;99932.25;5030713;28;45248;-74
2023/04/12 09:33:33;;;;;;;;;2.33;2.00;;;;;14.53;100.00;99928.47;5044713;28;45450;-75
2023/04/12 09:36:03;;;;;;;;;0.00;0.00;;;;;14.38;100.00;99931.25;5048414;28;45413;-74
2023/04/12 09:38:29;;;;;;;;;0.00;0.00;;;;;14.14;100.00;99915.16;5026222;28;48406;-74
2023/04/12 09:40:55;;;;;;;;;0.00;0.00;;;;;14.44;100.00;99936.97;5046501;28;45512;-73
2023/04/12 09:43:41;;;;;;;;;1.67;1.67;;;;;14.52;100.00;99934.97;5040411;28;45521;-74
2023/04/12 09:46:15;;;;;;;;;1.00;1.00;;;;;15.25;100.00;99939.22;5049546;28;45790;-73
2023/04/12 09:48:47;;;;;;;;;1.00;0.00;;;;;15.48;100.00;99937.09;5025716;28;46239;-74
2023/04/12 09:51:13;;;;;;;;;1.67;1.67;;;;;15.63;100.00;99930.69;5048742;28;45409;-74
2023/04/12 09:53:42;;;;;;;;;4.00;1.67;;;;;16.28;100.00;99919.22;5037627;28;45579;-74
2023/04/12 09:56:09;;;;;;;;;0.00;0.00;;;;;16.05;100.00;99941.47;5051686;28;45434;-75
2023/04/12 09:58:36;;;;;;;;;1.33;1.00;;;;;15.85;100.00;99933.13;5024838;28;45994;-75
2023/04/12 10:01:02;;;;;;;;;4.00;1.00;;;;;15.93;100.00;99927.47;5036657;28;45755;-75
2023/04/12 10:03:28;;;;;;;;;2.33;0.67;;;;;16.00;100.00;99957.66;5041827;28;45371;-75
2023/04/12 10:05:54;;;;;;;;;1.00;0.00;;;;;15.97;100.00;99933.41;5021690;28;45237;-75
2023/04/12 10:08:23;;;;;;;;;1.33;1.00;;;;;16.38;100.00;99935.25;5037726;28;46769;-75
2023/04/12 10:10:48;;;;;;;;;1.33;0.33;;;;;16.70;100.00;99948.28;5051185;28;45483;-75
2023/04/12 10:13:14;;;;;;;;;1.00;1.00;;;;;16.63;100.00;99944.66;5037834;28;45519;-75
2023/04/12 10:15:40;;;;;;;;;6.00;1.00;;;;;16.34;100.00;99945.81;5054966;28;45401;-73
2023/04/12 10:18:07;;;;;;;;;0.00;0.00;;;;;16.12;100.00;99942.34;5051211;28;45605;-73
2023/04/12 10:20:32;;;;;;;;;2.33;1.00;;;;;16.50;100.00;99942.72;5052095;28;45387;-73
2023/04/12 10:22:58;;;;;;;;;1.00;1.00;;;;;16.91;100.00;99909.69;5040241;28;45480;-73
2023/04/12 10:25:26;;;;;;;;;3.33;2.00;;;;;17.68;100.00;99920.00;5050023;28;45315;-74
2023/04/12 10:27:51;;;;;;;;;1.33;1.33;;;;;18.27;100.00;99928.06;5047421;28;45463;-74
2023/04/12 10:30:18;;;;;;;;;4.00;4.00;;;;;18.14;100.00;99930.03;5025309;28;45389;-73
2023/04/12 10:32:44;;;;;;;;;2.00;2.00;;;;;17.95;100.00;99917.22;5036871;28;45371;-72
2023/04/12 10:35:10;;;;;;;;;1.67;1.67;;;;;18.09;100.00;99922.44;5048314;28;45513;-74
2023/04/12 10:38:02;;;;;;;;;1.00;1.00;;;;;17.19;100.00;99941.56;5036177;28;45421;-74
2023/04/12 10:40:30;;;;;;;;;0.00;0.00;;;;;16.70;100.00;99949.13;5024681;28;45619;-75
2023/04/12 10:43:27;;;;;;;;;2.00;1.00;;;;;16.88;100.00;99940.28;5041366;28;45516;-75
2023/04/12 10:45:53;;;;;;;;;2.33;1.00;;;;;16.35;100.00;99953.00;4997475;28;45399;-74
2023/04/12 10:48:31;;;;;;;;;0.33;0.33;;;;;16.45;100.00;99947.94;5027073;28;48385;-75
2023/04/12 10:51:28;;;;;;;;;0.00;0.00;;;;;16.48;100.00;99952.19;5014735;28;45388;-74
2023/04/12 10:54:16;;;;;;;;;3.00;1.00;;;;;15.99;100.00;99939.56;5023664;28;45458;-74
2023/04/12 10:56:43;;;;;;;;;4.00;2.00;;;;;16.06;100.00;99948.66;5024952;28;45643;-74
2023/04/12 10:59:10;;;;;;;;;2.00;2.00;;;;;16.01;100.00;99948.38;5023046;28;46551;-74
2023/04/12 11:01:36;;;;;;;;;2.00;2.00;;;;;15.90;100.00;99951.72;5045389;28;45309;-74
2023/04/12 11:04:06;;;;;;;;;1.00;1.00;;;;;15.92;100.00;99953.22;5039132;28;45524;-73
2023/04/12 11:07:02;;;;;;;;;3.00;2.00;;;;;15.91;100.00;99961.63;5025603;28;45283;-74
2023/04/12 11:09:29;;;;;;;;;3.33;3.33;;;;;16.61;100.00;99957.72;5043110;28;47115;-72
2023/04/12 11:12:03;;;;;;;;;1.00;0.67;;;;;16.79;100.00;99960.75;5018851;28;45241;-73
2023/04/12 11:14:34;;;;;;;;;3.00;1.67;;;;;16.23;100.00;99957.34;5038474;28;45165;-73
2023/04/12 11:17:05;;;;;;;;;2.00;1.00;;;;;16.32;100.00;99962.47;5045836;28;45441;-73
2023/04/12 11:19:37;;;;;;;;;3.67;2.00;;;;;15.77;100.00;99968.06;5040750;28;45910;-74
2023/04/12 11:22:04;;;;;;;;;2.00;1.00;;;;;15.95;100.00;99957.41;5022229;28;45494;-73
2023/04/12 11:24:30;;;;;;;;;3.33;3.00;;;;;16.20;100.00;99928.47;5042213;28;45437;-74